Latest Weather Observations for Redcliffe

IDQ60901

Issued at 12:01 pm EST Wednesday 29 January 2020 (issued every 10 minutes, with the page automatically refreshed every 10 minutes)

About weather observations | Map of Brisbane area stations | Latest observations for Brisbane area | Other Formats
Station Details ID: 040958 Name: REDCLIFFE Lat: -27.22 Lon: 153.09 Height: 12.6 m
Data from the previous 72 hours. | See also: Recent months at Redcliffe
Date/Time
EST
Temp
°C
App
Temp
°C
Dew
Point
°C
Rel
Hum
%
Delta-T
°C
Wind Press
QNH
hPa
Press
MSL
hPa
Rain since
9am
mm
Dir  Spd
km/h
Gust
km/h
Spd
kts
Gust
kts
29/12:00pm 30.1 30.3 23.5 67 4.6 NE 28 30 15 16 1013.7 1013.6 0.0
29/11:30am 30.5 30.3 21.3 58 6.2 NE 24 28 13 15 1013.9 1013.8 0.0
29/11:00am 30.3 32.5 21.9 60 5.7 NNE 13 19 7 10 1014.1 1014.0 0.0
29/10:30am 30.4 33.1 22.8 64 5.2 NNW 13 19 7 10 1014.4 1014.3 0.0
29/10:00am 29.8 31.8 22.3 64 5.1 N 15 20 8 11 1014.6 1014.5 0.0
29/09:30am 29.2 31.6 22.9 69 4.3 NNW 15 20 8 11 1014.8 1014.7 0.0
29/09:00am 28.8 31.5 22.8 70 4.1 NNW 13 19 7 10 1014.8 1014.7 0.0
29/08:30am 28.7 31.7 23.4 73 3.6 NNW 13 19 7 10 1014.9 1014.8 0.0
29/08:00am 27.4 30.7 23.2 78 2.9 NNW 11 15 6 8 1015.0 1014.9 0.0
29/07:30am 26.8 30.5 23.3 81 2.4 NNW 9 11 5 6 1014.9 1014.8 0.0
29/07:00am 26.3 30.1 23.4 84 2.0 NW 9 11 5 6 1014.7 1014.6 0.0
29/06:30am 26.3 30.8 24.0 87 1.6 NW 7 9 4 5 1014.6 1014.5 0.0
29/06:00am 25.8 29.4 23.7 88 1.4 NNW 11 15 6 8 1013.9 1013.8 0.0
29/05:30am 25.9 29.8 23.6 87 1.6 NNW 9 13 5 7 1013.9 1013.8 0.0
29/05:00am 25.7 28.7 23.4 87 1.6 NNW 13 17 7 9 1013.5 1013.4 0.0
29/04:30am 25.9 28.7 23.6 87 1.6 N 15 19 8 10 1013.4 1013.3 0.0
29/04:00am 25.7 28.6 23.2 86 1.7 N 13 19 7 10 1013.3 1013.2 0.0
29/03:30am 26.0 29.1 23.5 86 1.7 N 13 15 7 8 1013.3 1013.2 0.0
29/03:00am 25.9 29.2 23.2 85 1.8 NNW 11 15 6 8 1013.3 1013.2 0.0
29/02:30am 25.9 29.4 23.6 87 1.6 NNW 11 17 6 9 1013.4 1013.3 0.0
29/02:00am 25.8 29.4 23.7 88 1.4 N 11 15 6 8 1013.5 1013.4 0.0
29/01:30am 25.4 28.5 23.5 89 1.3 N 13 15 7 8 1013.5 1013.4 0.0
29/01:00am 25.3 29.0 23.2 88 1.4 WNW 9 11 5 6 1013.9 1013.8 0.0
29/12:30am 24.8 28.2 22.7 88 1.4 WNW 9 11 5 6 1014.0 1013.9 0.0
29/12:00am 24.9 28.5 23.0 89 1.3 WNW 9 11 5 6 1014.3 1014.2 0.0
 
Date/Time
EST
Temp
°C
App
Temp
°C
Dew
Point
°C
Rel
Hum
%
Delta-T
°C
Wind Press
QNH
hPa
Press
MSL
hPa
Rain since
9am
mm
Dir  Spd
km/h
Gust
km/h
Spd
kts
Gust
kts
28/11:30pm 25.3 28.1 23.0 87 1.6 NNW 13 19 7 10 1014.5 1014.4 0.0
28/11:00pm 26.0 29.2 23.7 87 1.6 N 13 19 7 10 1014.7 1014.6 0.0
28/10:30pm 25.9 28.2 23.4 86 1.7 N 17 22 9 12 1014.7 1014.6 0.0
28/10:00pm 26.1 27.5 23.6 86 1.7 N 22 28 12 15 1014.9 1014.8 0.0
28/09:30pm 26.5 27.1 22.8 80 2.5 NNE 24 28 13 15 1014.7 1014.6 0.0
28/09:00pm 26.6 26.0 22.7 79 2.6 NNE 30 33 16 18 1014.5 1014.4 0.0
28/08:30pm 26.5 26.6 23.2 82 2.2 NNE 28 33 15 18 1014.4 1014.3 0.0
28/08:00pm 26.5 27.3 23.2 82 2.2 NNE 24 30 13 16 1014.3 1014.2 0.0
28/07:30pm 26.5 27.1 22.8 80 2.5 NNE 24 30 13 16 1014.2 1014.1 0.0
28/07:00pm 26.7 27.3 22.8 79 2.6 NNE 24 28 13 15 1014.0 1013.9 0.0
28/06:30pm 27.0 27.6 22.8 78 2.8 NNE 24 28 13 15 1013.8 1013.7 0.0
28/06:00pm 27.0 26.4 22.0 74 3.4 NNE 28 32 15 17 1013.4 1013.3 0.0
28/05:30pm 27.5 26.5 21.3 69 4.1 NNE 28 30 15 16 1013.1 1013.0 0.0
28/05:00pm 28.0 27.0 21.3 67 4.5 NNE 28 32 15 17 1012.6 1012.5 0.0
28/04:30pm 28.0 27.3 21.8 69 4.2 NE 28 32 15 17 1012.7 1012.6 0.0
28/04:00pm 28.5 28.2 21.8 67 4.5 NE 26 30 14 16 1012.7 1012.6 0.0
28/03:30pm 28.8 29.2 21.8 66 4.7 NE 22 26 12 14 1012.7 1012.6 0.0
28/03:00pm 29.4 30.4 22.1 65 4.9 NE 20 26 11 14 1012.9 1012.8 0.0
28/02:30pm 29.9 30.9 22.1 63 5.3 NE 20 26 11 14 1013.2 1013.1 0.0
28/02:00pm 29.7 30.6 21.6 61 5.4 NE 19 22 10 12 1013.4 1013.3 0.0
28/01:30pm 29.4 30.6 22.1 65 4.9 NE 19 22 10 12 1013.5 1013.4 0.0
28/01:00pm 29.3 30.9 21.5 63 5.2 NE 15 19 8 10 1013.8 1013.7 0.0
28/12:30pm 28.9 31.7 23.6 73 3.6 E 15 19 8 10 1014.3 1014.2 0.0
28/12:00pm 29.1 31.0 22.8 69 4.3 ENE 17 22 9 12 1014.4 1014.3 0.0
28/11:30am 28.9 30.5 22.9 70 4.1 NE 19 22 10 12 1014.6 1014.5 0.0
28/11:00am 29.1 31.3 22.6 68 4.4 NE 15 17 8 9 1014.8 1014.7 0.0
28/10:30am 28.3 30.0 22.3 70 4.1 NE 17 20 9 11 1014.8 1014.7 0.0
28/10:00am 28.0 30.6 22.7 73 3.6 ENE 13 17 7 9 1014.8 1014.7 0.0
28/09:30am 28.1 31.9 23.5 76 3.2 NE 9 11 5 6 1014.8 1014.7 0.0
28/09:00am 27.6 31.3 23.2 77 3.0 NE 9 13 5 7 1014.7 1014.6 1.8
28/08:30am 26.8 29.9 23.5 82 2.3 N 13 17 7 9 1014.4 1014.3 1.8
28/08:00am 25.6 27.1 22.7 84 2.0 NE 19 22 10 12 1014.2 1014.1 1.8
28/07:30am 24.9 28.1 23.1 90 1.2 N 11 17 6 9 1014.1 1014.0 1.8
28/07:00am 24.2 28.7 23.7 97 0.3 ENE 6 9 3 5 1014.1 1014.0 1.8
28/06:30am 24.7 27.1 22.2 86 1.7 NNE 13 19 7 10 1013.9 1013.8 0.0
28/06:00am 24.2 25.4 22.1 88 1.4 NE 19 26 10 14 1013.6 1013.5 0.0
28/05:30am 24.5 24.7 22.8 90 1.1 NE 26 32 14 17 1013.5 1013.4 0.0
28/05:00am 24.2 23.7 22.1 88 1.4 NNE 28 30 15 16 1013.3 1013.2 0.0
28/04:30am 25.1 25.9 22.4 85 1.8 ENE 22 28 12 15 1013.3 1013.2 0.0
28/04:00am 25.0 26.2 22.5 86 1.7 ENE 20 24 11 13 1013.4 1013.3 0.0
28/03:30am 24.6 26.6 22.3 87 1.5 ENE 15 19 8 10 1013.3 1013.2 0.0
28/03:00am 24.6 25.9 22.3 87 1.5 ENE 19 26 10 14 1013.4 1013.3 0.0
28/02:30am 24.9 26.3 22.6 87 1.5 ENE 19 28 10 15 1013.5 1013.4 0.0
28/02:00am 24.9 26.0 22.0 84 1.9 ENE 19 22 10 12 1013.6 1013.5 0.0
28/01:30am 25.0 25.1 21.1 79 2.6 ENE 22 26 12 14 1013.7 1013.6 0.0
28/01:00am 25.1 24.9 22.0 83 2.1 ENE 26 32 14 17 1014.0 1013.9 0.0
28/12:30am 25.3 26.1 21.4 79 2.6 ENE 19 24 10 13 1014.2 1014.1 0.0
28/12:00am 25.7 26.5 21.8 79 2.6 ENE 20 26 11 14 1014.4 1014.3 0.0
 
Date/Time
EST
Temp
°C
App
Temp
°C
Dew
Point
°C
Rel
Hum
%
Delta-T
°C
Wind Press
QNH
hPa
Press
MSL
hPa
Rain since
9am
mm
Dir  Spd
km/h
Gust
km/h
Spd
kts
Gust
kts
27/11:30pm 25.7 26.2 20.9 75 3.2 ENE 19 24 10 13 1014.7 1014.6 0.0
27/11:00pm 25.6 26.1 21.1 76 3.0 ENE 20 26 11 14 1014.8 1014.7 0.0
27/10:30pm 25.9 26.3 21.8 78 2.7 ENE 22 26 12 14 1014.8 1014.7 0.0
27/10:00pm 25.2 25.2 21.7 81 2.3 ENE 24 28 13 15 1014.8 1014.7 0.0
27/09:30pm 25.5 25.3 21.2 77 2.8 ENE 24 32 13 17 1015.0 1014.9 0.0
27/09:00pm 25.4 25.7 22.3 83 2.1 NE 24 28 13 15 1014.7 1014.6 0.0
27/08:30pm 25.9 26.5 21.3 76 3.0 E 20 26 11 14 1014.6 1014.5 0.0
27/08:00pm 26.0 26.2 21.4 76 3.1 E 22 28 12 15 1014.1 1014.0 0.0
27/07:30pm 26.2 26.4 21.4 75 3.2 E 22 26 12 14 1014.1 1014.0 0.0
27/07:00pm 26.2 26.5 20.8 72 3.6 E 20 22 11 12 1014.0 1013.9 0.0
27/06:30pm 26.4 26.6 20.5 70 3.9 E 20 28 11 15 1013.6 1013.5 0.0
27/06:00pm 26.7 27.2 20.8 70 3.9 E 19 24 10 13 1013.4 1013.3 0.0
27/05:30pm 27.0 26.2 20.8 69 4.1 E 26 30 14 16 1012.7 1012.6 0.0
27/05:00pm 27.6 27.0 20.4 65 4.7 E 24 30 13 16 1012.5 1012.4 0.0
27/04:30pm 27.5 27.4 20.8 67 4.4 E 22 28 12 15 1012.6 1012.5 0.0
27/04:00pm 27.5 27.3 19.8 63 5.0 E 20 28 11 15 1012.7 1012.6 0.0
27/03:30pm 28.1 27.8 21.1 65 4.7 E 24 33 13 18 1012.6 1012.5 0.0
27/03:00pm 28.2 28.2 21.0 65 4.8 E 22 28 12 15 1012.8 1012.7 0.0
27/02:30pm 29.2 29.8 21.4 63 5.2 E 20 26 11 14 1012.8 1012.7 0.0
27/02:00pm 28.4 28.8 20.7 63 5.1 E 19 24 10 13 1013.0 1012.9 0.0
27/01:30pm 28.1 28.6 20.9 65 4.8 E 19 22 10 12 1013.1 1013.0 0.0
27/01:00pm 28.6 29.9 20.9 63 5.1 E 15 22 8 12 1013.6 1013.5 0.0
27/12:30pm 28.7 30.7 21.5 65 4.8 E 13 17 7 9 1014.0 1013.9 0.0
27/12:00pm 28.2 30.2 21.5 67 4.5 E 13 19 7 10 1014.1 1014.0 0.0
27/11:30am 28.5 31.3 20.8 63 5.1 ENE 7 9 4 5 1014.4 1014.3 0.0
27/11:00am 28.0 30.5 20.3 63 5.1 SSE 7 11 4 6 1014.7 1014.6 0.0
27/10:30am 28.2 30.8 21.2 65 4.7 E 9 13 5 7 1015.0 1014.9 0.0
27/10:00am 27.3 29.3 19.9 64 4.8 E 9 11 5 6 1014.9 1014.8 0.0
27/09:30am 28.1 30.4 20.6 63 4.9 ENE 9 11 5 6 1014.9 1014.8 0.0
27/09:00am 27.6 28.9 20.2 64 4.8 NE 13 15 7 8 1014.9 1014.8 0.0
27/08:30am 27.8 29.5 20.9 66 4.6 ENE 13 19 7 10 1014.5 1014.4 0.0
27/08:00am 27.6 28.4 20.7 66 4.6 ENE 17 19 9 10 1014.4 1014.3 0.0
27/07:30am 27.4 28.2 20.7 67 4.4 ENE 17 20 9 11 1014.2 1014.1 0.0
27/07:00am 26.4 26.5 20.0 68 4.2 E 19 24 10 13 1014.0 1013.9 0.0
27/06:30am 26.6 27.2 21.1 72 3.6 ENE 19 24 10 13 1013.8 1013.7 0.0
27/06:00am 25.7 26.6 20.9 75 3.2 ENE 17 20 9 11 1013.6 1013.5 0.0
27/05:30am 25.2 26.6 21.1 78 2.7 ENE 15 19 8 10 1013.1 1013.0 0.0
27/05:00am 24.9 26.7 21.2 80 2.4 NE 13 15 7 8 1013.0 1012.9 0.0
27/04:30am 25.0 26.0 21.1 79 2.6 NE 17 19 9 10 1012.9 1012.8 0.0
27/04:00am 24.1 24.9 21.4 85 1.8 NE 19 22 10 12 1012.7 1012.6 0.0
27/03:30am 24.5 24.7 21.4 83 2.0 NE 22 28 12 15 1012.7 1012.6 0.0
27/03:00am 25.6 26.1 21.1 76 3.0 NE 20 26 11 14 1012.6 1012.5 0.0
27/02:30am 25.5 26.2 21.6 79 2.6 ENE 20 26 11 14 1012.9 1012.8 0.0
27/02:00am 25.6 26.5 20.8 75 3.2 NE 17 20 9 11 1013.0 1012.9 0.0
27/01:30am 25.7 26.2 21.1 76 3.0 NE 20 24 11 13 1013.3 1013.2 0.0
27/01:00am 25.7 26.1 20.9 75 3.2 NE 20 26 11 14 1013.6 1013.5 0.0
27/12:30am 26.0 26.6 21.4 76 3.1 ENE 20 28 11 15 1013.9 1013.8 0.0
27/12:00am 25.8 26.5 21.5 77 2.9 ENE 20 26 11 14 1014.3 1014.2 0.0
 
Date/Time
EST
Temp
°C
App
Temp
°C
Dew
Point
°C
Rel
Hum
%
Delta-T
°C
Wind Press
QNH
hPa
Press
MSL
hPa
Rain since
9am
mm
Dir  Spd
km/h
Gust
km/h
Spd
kts
Gust
kts
26/11:30pm 25.9 26.6 21.6 77 2.9 ENE 20 26 11 14 1014.7 1014.6 0.0
26/11:00pm 26.2 26.7 21.2 74 3.3 ENE 20 24 11 13 1014.9 1014.8 0.0
26/10:30pm 26.1 26.7 21.3 75 3.2 ENE 20 26 11 14 1014.9 1014.8 0.0
26/10:00pm 26.2 27.0 21.8 77 2.9 ENE 20 26 11 14 1015.0 1014.9 0.0
26/09:30pm 26.3 26.6 21.5 75 3.2 ENE 22 28 12 15 1014.8 1014.7 0.0
26/09:00pm 26.2 26.3 21.2 74 3.3 ENE 22 28 12 15 1014.6 1014.5 0.0
26/08:30pm 26.3 26.6 21.5 75 3.2 ENE 22 26 12 14 1014.4 1014.3 0.0
26/08:00pm 26.4 26.7 21.6 75 3.2 ENE 22 28 12 15 1013.9 1013.8 0.0
26/07:30pm 26.6 26.6 21.6 74 3.3 ENE 24 28 13 15 1013.6 1013.5 0.0
26/07:00pm 26.6 26.1 20.7 70 3.9 ENE 24 28 13 15 1013.3 1013.2 0.0
26/06:30pm 26.9 27.5 21.4 72 3.7 ENE 20 26 11 14 1013.2 1013.1 0.0
26/06:00pm 27.1 28.0 21.6 72 3.7 ENE 19 22 10 12 1013.0 1012.9 0.0
26/05:30pm 27.2 27.0 20.5 67 4.4 NE 22 26 12 14 1012.7 1012.6 0.0
26/05:00pm 27.4 26.7 21.0 68 4.2 NE 26 32 14 17 1012.6 1012.5 0.0
26/04:30pm 27.9 26.9 20.5 64 4.9 NE 26 30 14 16 1012.5 1012.4 0.0
26/04:00pm 27.9 27.0 22.2 71 3.8 NE 30 33 16 18 1012.7 1012.6 0.0
26/03:30pm 27.7 27.6 21.5 69 4.1 NE 24 30 13 16 1012.9 1012.8 0.0
26/03:00pm 28.1 29.5 21.9 69 4.2 E 17 20 9 11 1013.0 1012.9 0.0
26/02:30pm 27.5 26.9 22.0 72 3.7 E 28 32 15 17 1013.3 1013.2 0.0
26/02:00pm 28.6 28.3 21.1 64 5.0 ENE 24 30 13 16 1013.5 1013.4 0.0
26/01:30pm 28.9 29.9 22.2 67 4.5 ENE 20 26 11 14 1013.7 1013.6 0.0
26/01:00pm 28.3 29.7 22.5 71 3.9 E 19 24 10 13 1013.9 1013.8 0.0
26/12:30pm 28.9 29.9 22.9 70 4.1 ENE 22 28 12 15 1014.1 1014.0 0.0

Latest Capital City Observations: Canberra | Sydney | Melbourne | Brisbane | Adelaide | Perth | Hobart | Darwin

Other formats

Comma delimited format used in spreadsheet applications
http://www.bom.gov.au/fwo/IDQ60901/IDQ60901.95591.axf

JavaScript Object Notation format (JSON) in row-major order
http://www.bom.gov.au/fwo/IDQ60901/IDQ60901.95591.json

Data quality

Most of these data are generated automatically and are frequently updated. Quality checks on data are not normally performed. It is possible for incorrect values to appear. Refer to information at About Latest Weather Observations and please check the disclaimer before using these data.